createdAt,value
2018-06-03T00:00:33.763Z,95812.14
2018-06-03T00:03:03.765Z,95820.68
2018-06-03T00:05:33.727Z,95817.77
2018-06-03T00:08:03.878Z,95820.16
2018-06-03T00:10:33.860Z,95817.14
2018-06-03T00:13:03.906Z,95814.09
2018-06-03T00:15:33.896Z,95808.73
2018-06-03T00:18:03.885Z,95808.66
2018-06-03T00:21:43.812Z,95809.29
2018-06-03T00:24:13.916Z,95810.30
2018-06-03T00:26:43.925Z,95806.77
2018-06-03T00:29:13.960Z,95800.42
2018-06-03T00:31:43.968Z,95802.29
2018-06-03T00:34:13.979Z,95796.33
2018-06-03T00:36:49.306Z,95801.44
2018-06-03T00:39:19.299Z,95796.41
2018-06-03T00:41:49.298Z,95797.11
2018-06-03T00:44:19.280Z,95790.90
2018-06-03T00:46:49.246Z,95784.68
2018-06-03T00:49:19.248Z,95790.56
2018-06-03T00:51:49.216Z,95786.28
2018-06-03T00:54:19.251Z,95787.32
2018-06-03T00:57:05.890Z,95782.41
2018-06-03T00:59:35.861Z,95783.23
2018-06-03T01:02:05.843Z,95784.50
2018-06-03T01:04:35.873Z,95781.85
2018-06-03T01:07:05.860Z,95784.27
2018-06-03T01:09:35.841Z,95788.33
2018-06-03T01:12:05.826Z,95783.78
2018-06-03T01:14:35.831Z,95781.89
2018-06-03T01:17:05.813Z,95780.21
2018-06-03T01:19:35.791Z,95781.00
2018-06-03T01:22:06.397Z,95784.45
2018-06-03T01:24:36.386Z,95781.78
2018-06-03T01:27:06.387Z,95781.48
2018-06-03T01:29:36.388Z,95779.58
2018-06-03T01:32:06.401Z,95778.23
2018-06-03T01:34:36.393Z,95773.40
2018-06-03T01:37:06.520Z,95767.14
2018-06-03T01:39:36.518Z,95770.08
2018-06-03T01:42:06.535Z,95763.67
2018-06-03T01:44:36.514Z,95769.48
2018-06-03T01:47:06.521Z,95764.91
2018-06-03T01:49:36.537Z,95766.51
2018-06-03T01:52:06.540Z,95763.08
2018-06-03T01:54:36.601Z,95759.66
2018-06-03T01:57:06.884Z,95756.64
2018-06-03T01:59:37.237Z,95763.87
2018-06-03T02:02:07.258Z,95759.84
2018-06-03T02:04:37.239Z,95757.98
2018-06-03T02:07:07.238Z,95750.43
2018-06-03T02:09:37.251Z,95749.38
2018-06-03T02:12:07.287Z,95754.70
2018-06-03T02:14:37.330Z,95750.65
2018-06-03T02:17:07.623Z,95744.91
2018-06-03T02:19:37.659Z,95742.16
2018-06-03T02:22:07.696Z,95737.31
2018-06-03T02:24:37.706Z,95734.63
2018-06-03T02:27:07.733Z,95736.23
2018-06-03T02:29:37.316Z,95734.30
2018-06-03T02:32:07.409Z,95730.23
2018-06-03T02:34:37.391Z,95731.84
2018-06-03T02:37:07.424Z,95733.00
2018-06-03T02:39:37.380Z,95735.23
2018-06-03T02:42:07.414Z,95736.02
2018-06-03T02:44:37.390Z,95728.98
2018-06-03T02:47:07.440Z,95736.98
2018-06-03T02:49:37.396Z,95733.77
2018-06-03T02:52:07.564Z,95732.70
2018-06-03T02:54:37.552Z,95728.38
2018-06-03T02:57:07.581Z,95731.58
2018-06-03T02:59:37.551Z,95720.34
2018-06-03T03:02:07.611Z,95720.05
2018-06-03T03:04:37.571Z,95718.52
2018-06-03T03:07:07.558Z,95710.48
2018-06-03T03:09:37.548Z,95716.67
2018-06-03T03:12:07.623Z,95720.45
2018-06-03T03:14:37.615Z,95717.74
2018-06-03T03:17:07.642Z,95721.47
2018-06-03T03:19:37.632Z,95722.80
2018-06-03T03:22:07.719Z,95730.84
2018-06-03T03:24:37.703Z,95728.16
2018-06-03T03:27:07.755Z,95727.89
2018-06-03T03:29:37.749Z,95730.02
2018-06-03T03:32:07.803Z,95733.73
2018-06-03T03:34:37.800Z,95729.64
2018-06-03T03:37:07.851Z,95725.02
2018-06-03T03:39:38.132Z,95733.58
2018-06-03T03:42:08.177Z,95732.02
2018-06-03T03:44:38.175Z,95731.67
2018-06-03T03:47:08.219Z,95734.87
2018-06-03T03:49:38.240Z,95743.05
2018-06-03T03:52:08.311Z,95737.25
2018-06-03T03:54:38.316Z,95742.27
2018-06-03T03:57:08.345Z,95751.38
2018-06-03T03:59:38.384Z,95747.66
2018-06-03T04:02:08.363Z,95747.19
2018-06-03T04:04:38.376Z,95748.05
2018-06-03T04:07:08.381Z,95743.81
2018-06-03T04:09:38.371Z,95747.34
2018-06-03T04:12:08.400Z,95748.13
2018-06-03T04:14:38.432Z,95747.09
2018-06-03T04:17:08.488Z,95752.74
2018-06-03T04:19:38.539Z,95758.37
2018-06-03T04:22:08.507Z,95760.04
2018-06-03T04:24:38.499Z,95762.20
2018-06-03T04:27:08.444Z,95762.06
2018-06-03T04:29:38.479Z,95764.56
2018-06-03T04:32:08.465Z,95763.64
2018-06-03T04:34:38.471Z,95761.08
2018-06-03T04:37:08.433Z,95765.55
2018-06-03T04:39:38.461Z,95767.84
2018-06-03T04:42:08.424Z,95766.34
2018-06-03T04:44:38.422Z,95764.61
2018-06-03T04:47:08.700Z,95767.12
2018-06-03T04:49:39.093Z,95762.38
2018-06-03T04:52:09.163Z,95769.20
2018-06-03T04:54:39.206Z,95763.34
2018-06-03T04:57:09.292Z,95771.66
2018-06-03T04:59:39.418Z,95766.09
2018-06-03T05:02:09.437Z,95760.55
2018-06-03T05:04:39.462Z,95760.06
2018-06-03T05:07:09.504Z,95757.48
2018-06-03T05:09:39.536Z,95761.90
2018-06-03T05:12:09.510Z,95760.94
2018-06-03T05:14:39.494Z,95763.43
2018-06-03T05:17:09.459Z,95765.65
2018-06-03T05:19:39.465Z,95768.91
2018-06-03T05:22:09.432Z,95760.34
2018-06-03T05:24:39.458Z,95757.98
2018-06-03T05:27:09.419Z,95758.01
2018-06-03T05:29:39.495Z,95763.66
2018-06-03T05:32:09.914Z,95753.45
2018-06-03T05:34:39.914Z,95755.65
2018-06-03T05:37:09.880Z,95751.93
2018-06-03T05:39:39.856Z,95755.52
2018-06-03T05:42:09.868Z,95755.06
2018-06-03T05:44:39.870Z,95755.66
2018-06-03T05:47:09.831Z,95755.45
2018-06-03T05:49:39.814Z,95763.34
2018-06-03T05:52:09.766Z,95754.80
2018-06-03T05:54:39.809Z,95757.49
2018-06-03T05:57:09.816Z,95754.48
2018-06-03T05:59:39.813Z,95756.34
2018-06-03T06:02:09.789Z,95759.02
2018-06-03T06:04:39.797Z,95761.41
2018-06-03T06:07:09.787Z,95761.89
2018-06-03T06:09:39.765Z,95763.91
2018-06-03T06:12:09.742Z,95717.43
2018-06-03T06:14:39.721Z,95764.34
2018-06-03T06:17:09.723Z,95770.80
2018-06-03T06:19:39.760Z,95781.51
2018-06-03T06:22:09.350Z,95772.32
2018-06-03T06:24:39.348Z,95784.98
2018-06-03T06:27:09.339Z,95784.59
2018-06-03T06:29:39.302Z,95785.52
2018-06-03T06:32:09.303Z,95778.91
2018-06-03T06:34:39.312Z,95780.56
2018-06-03T06:37:09.314Z,95782.33
2018-06-03T06:39:39.303Z,95783.83
2018-06-03T06:42:09.304Z,95781.49
2018-06-03T06:44:39.289Z,95778.06
2018-06-03T06:47:09.296Z,95779.18
2018-06-03T06:49:39.272Z,95779.83
2018-06-03T06:52:09.755Z,95781.97
2018-06-03T06:54:39.793Z,95788.45
2018-06-03T06:57:09.796Z,95779.50
2018-06-03T06:59:39.789Z,95782.17
2018-06-03T07:02:09.826Z,95785.02
2018-06-03T07:04:39.808Z,95781.38
2018-06-03T07:07:09.806Z,95779.58
2018-06-03T07:09:39.737Z,95776.71
2018-06-03T07:12:09.713Z,95775.77
2018-06-03T07:14:39.657Z,95776.66
2018-06-03T07:17:09.644Z,95775.51
2018-06-03T07:19:39.598Z,95777.61
2018-06-03T07:22:09.578Z,95780.95
2018-06-03T07:24:39.532Z,95779.77
2018-06-03T07:27:09.560Z,95784.11
2018-06-03T07:29:39.517Z,95780.64
2018-06-03T07:32:10.118Z,95779.59
2018-06-03T07:34:40.107Z,95788.34
2018-06-03T07:37:10.097Z,95787.39
2018-06-03T07:39:40.047Z,95782.49
2018-06-03T07:42:10.086Z,95785.00
2018-06-03T07:44:40.061Z,95789.50
2018-06-03T07:47:10.027Z,95777.56
2018-06-03T07:49:40.043Z,95780.19
2018-06-03T07:52:10.059Z,95787.31
2018-06-03T07:54:40.082Z,95779.70
2018-06-03T07:57:10.068Z,95789.05
2018-06-03T07:59:40.024Z,95785.56
2018-06-03T08:02:10.003Z,95784.34
2018-06-03T08:04:39.972Z,95781.36
2018-06-03T08:07:09.978Z,95777.59
2018-06-03T08:09:39.924Z,95780.43
2018-06-03T08:12:09.932Z,95777.08
2018-06-03T08:14:39.903Z,95771.63
2018-06-03T08:17:09.912Z,95768.54
2018-06-03T08:19:39.921Z,95773.14
2018-06-03T08:22:09.924Z,95774.76
2018-06-03T08:24:39.858Z,95767.62
2018-06-03T08:27:09.891Z,95767.10
2018-06-03T08:29:39.891Z,95761.04
2018-06-03T08:32:09.910Z,95771.91
2018-06-03T08:34:39.870Z,95763.33
2018-06-03T08:37:09.872Z,95763.18
2018-06-03T08:39:39.856Z,95758.39
2018-06-03T08:42:09.888Z,95755.23
2018-06-03T08:44:39.863Z,95757.95
2018-06-03T08:47:09.873Z,95757.84
2018-06-03T08:49:39.887Z,95759.12
2018-06-03T08:52:10.081Z,95754.95
2018-06-03T08:54:40.097Z,95756.53
2018-06-03T08:57:10.078Z,95756.13
2018-06-03T08:59:40.124Z,95750.05
2018-06-03T09:02:10.126Z,95749.88
2018-06-03T09:04:40.165Z,95749.46
2018-06-03T09:07:10.139Z,95744.98
2018-06-03T09:09:40.141Z,95746.52
2018-06-03T09:12:10.138Z,95740.77
2018-06-03T09:14:40.159Z,95746.26
2018-06-03T09:17:10.119Z,95746.13
2018-06-03T09:19:40.113Z,95744.25
2018-06-03T09:22:10.035Z,95740.16
2018-06-03T09:24:40.012Z,95745.14
2018-06-03T09:27:10.000Z,95741.09
2018-06-03T09:29:40.007Z,95741.55
2018-06-03T09:32:09.967Z,95734.97
2018-06-03T09:34:40.014Z,95725.86
2018-06-03T09:37:10.012Z,95731.66
2018-06-03T09:39:40.011Z,95730.09
2018-06-03T09:42:10.031Z,95733.42
2018-06-03T09:44:40.035Z,95726.63
2018-06-03T09:47:10.271Z,95727.09
2018-06-03T09:49:40.284Z,95722.31
2018-06-03T09:52:10.343Z,95722.86
2018-06-03T09:54:40.353Z,95722.94
2018-06-03T09:57:10.308Z,95720.47
2018-06-03T09:59:40.382Z,95716.89
2018-06-03T10:02:10.368Z,95716.13
2018-06-03T10:04:40.379Z,95716.45
2018-06-03T10:07:10.353Z,95707.69
2018-06-03T10:09:40.455Z,95706.98
2018-06-03T10:12:10.456Z,95705.13
2018-06-03T10:14:40.466Z,95712.09
2018-06-03T10:17:10.418Z,95721.39
2018-06-03T10:19:40.467Z,95717.91
2018-06-03T10:22:10.528Z,95715.77
2018-06-03T10:24:40.199Z,95715.69
2018-06-03T10:27:10.190Z,95706.38
2018-06-03T10:29:40.327Z,95706.92
2018-06-03T10:32:10.371Z,95703.22
2018-06-03T10:34:40.401Z,95706.05
2018-06-03T10:37:10.497Z,95711.50
2018-06-03T10:39:40.589Z,95707.73
2018-06-03T10:42:10.563Z,95707.96
2018-06-03T10:44:40.564Z,95706.93
2018-06-03T10:47:10.578Z,95700.67
2018-06-03T10:49:40.656Z,95699.78
2018-06-03T10:52:10.611Z,95701.06
2018-06-03T10:54:40.656Z,95699.71
2018-06-03T10:57:11.574Z,95694.36
2018-06-03T10:59:41.616Z,95690.93
2018-06-03T11:02:11.630Z,95690.30
2018-06-03T11:04:41.610Z,95693.27
2018-06-03T11:07:12.350Z,95688.20
2018-06-03T11:09:42.348Z,95684.05
2018-06-03T11:12:12.321Z,95686.61
2018-06-03T11:14:42.727Z,95678.33
2018-06-03T11:17:12.770Z,95674.69
2018-06-03T11:19:43.363Z,95670.61
2018-06-03T11:22:13.304Z,95670.15
2018-06-03T11:24:43.313Z,95663.02
2018-06-03T11:27:13.297Z,95663.06
2018-06-03T11:29:43.390Z,95663.23
2018-06-03T11:32:13.348Z,95659.67
2018-06-03T11:34:43.354Z,95662.04
2018-06-03T11:37:13.382Z,95663.59
2018-06-03T11:39:43.520Z,95652.20
2018-06-03T11:42:13.759Z,95656.08
2018-06-03T11:44:44.238Z,95650.45
2018-06-03T11:47:14.414Z,95647.97
2018-06-03T11:49:44.487Z,95649.28
2018-06-03T11:52:14.507Z,95645.55
2018-06-03T11:54:44.668Z,95645.95
2018-06-03T11:57:14.860Z,95643.93
2018-06-03T11:59:45.541Z,95645.98
2018-06-03T12:02:17.380Z,95642.95
2018-06-03T12:04:47.496Z,95636.88
2018-06-03T12:07:17.547Z,95633.73
2018-06-03T12:09:47.131Z,95631.72
2018-06-03T12:12:17.150Z,95626.34
2018-06-03T12:14:47.880Z,95626.58
2018-06-03T12:17:17.908Z,95620.34
2018-06-03T12:19:47.897Z,95621.25
2018-06-03T12:22:17.940Z,95613.13
2018-06-03T12:24:47.906Z,95613.76
2018-06-03T12:27:17.973Z,95616.70
2018-06-03T12:29:47.942Z,95616.31
2018-06-03T12:32:18.055Z,95611.66
2018-06-03T12:34:48.008Z,95610.16
2018-06-03T12:37:18.030Z,95608.72
2018-06-03T12:39:48.025Z,95606.72
2018-06-03T12:42:18.104Z,95594.56
2018-06-03T12:44:48.070Z,95604.31
2018-06-03T12:47:18.127Z,95606.88
2018-06-03T12:49:48.120Z,95595.45
2018-06-03T12:52:18.191Z,95597.33
2018-06-03T12:54:48.197Z,95593.17
2018-06-03T12:57:18.205Z,95587.01
2018-06-03T12:59:48.178Z,95581.14
2018-06-03T13:02:18.384Z,95576.44
2018-06-03T13:04:48.345Z,95576.62
2018-06-03T13:07:18.444Z,95571.54
2018-06-03T13:09:48.400Z,95569.57
2018-06-03T13:12:18.444Z,95567.87
2018-06-03T13:14:48.452Z,95570.28
2018-06-03T13:17:18.535Z,95563.77
2018-06-03T13:19:48.517Z,95563.38
2018-06-03T13:22:18.568Z,95566.41
2018-06-03T13:24:48.555Z,95563.63
2018-06-03T13:27:18.621Z,95555.26
2018-06-03T13:29:48.630Z,95553.23
2018-06-03T13:32:18.779Z,95557.70
2018-06-03T13:34:48.759Z,95553.47
2018-06-03T13:37:18.790Z,95551.10
2018-06-03T13:39:48.750Z,95542.22
2018-06-03T13:42:18.860Z,95536.55
2018-06-03T13:44:48.851Z,95549.19
2018-06-03T13:47:18.960Z,95539.34
2018-06-03T13:49:48.927Z,95539.53
2018-06-03T13:52:19.008Z,95541.16
2018-06-03T13:54:49.079Z,95542.70
2018-06-03T13:57:19.162Z,95540.71
2018-06-03T13:59:49.156Z,95531.38
2018-06-03T14:02:19.265Z,95529.20
2018-06-03T14:04:49.243Z,95528.20
2018-06-03T14:07:19.283Z,95517.42
2018-06-03T14:09:49.357Z,95513.41
2018-06-03T14:12:19.449Z,95512.09
2018-06-03T14:14:49.457Z,95509.13
2018-06-03T14:17:19.587Z,95506.67
2018-06-03T14:19:49.603Z,95506.27
2018-06-03T14:22:19.691Z,95509.63
2018-06-03T14:24:49.738Z,95507.12
2018-06-03T14:27:19.772Z,95504.70
2018-06-03T14:29:49.808Z,95499.73
2018-06-03T14:32:19.895Z,95495.17
2018-06-03T14:34:49.936Z,95494.71
2018-06-03T14:37:19.973Z,95493.56
2018-06-03T14:39:50.000Z,95486.22
2018-06-03T14:42:20.055Z,95487.77
2018-06-03T14:44:50.053Z,95495.05
2018-06-03T14:47:20.117Z,95490.80
2018-06-03T14:49:50.119Z,95492.18
2018-06-03T14:52:20.147Z,95486.70
2018-06-03T14:54:50.236Z,95487.08
2018-06-03T14:57:20.309Z,95479.02
2018-06-03T14:59:50.250Z,95479.27
2018-06-03T15:02:20.364Z,95459.63
2018-06-03T15:04:50.402Z,95468.13
2018-06-03T15:07:20.423Z,95465.87
2018-06-03T15:09:50.413Z,95454.61
2018-06-03T15:12:20.542Z,95455.63
2018-06-03T15:14:50.534Z,95445.81
2018-06-03T15:17:20.575Z,95446.98
2018-06-03T15:19:50.538Z,95451.41
2018-06-03T15:22:20.555Z,95453.98
2018-06-03T15:24:50.599Z,95448.70
2018-06-03T15:27:20.678Z,95449.27
2018-06-03T15:29:50.694Z,95448.97
2018-06-03T15:32:20.802Z,95446.43
2018-06-03T15:34:50.787Z,95446.61
2018-06-03T15:37:20.915Z,95442.14
2018-06-03T15:39:50.903Z,95431.77
2018-06-03T15:42:20.879Z,95436.03
2018-06-03T15:44:50.854Z,95427.09
2018-06-03T15:47:20.866Z,95434.66
2018-06-03T15:49:50.864Z,95431.33
2018-06-03T15:52:20.820Z,95424.38
2018-06-03T15:54:50.868Z,95425.81
2018-06-03T15:57:20.898Z,95417.97
2018-06-03T15:59:50.915Z,95409.62
2018-06-03T16:02:20.933Z,95416.09
2018-06-03T16:04:50.902Z,95422.38
2018-06-03T16:07:20.911Z,95415.90
2018-06-03T16:09:50.936Z,95417.10
2018-06-03T16:12:21.191Z,95407.62
2018-06-03T16:14:51.256Z,95412.59
2018-06-03T16:17:21.367Z,95405.79
2018-06-03T16:19:51.340Z,95409.16
2018-06-03T16:22:21.434Z,95398.48
2018-06-03T16:24:51.418Z,95403.94
2018-06-03T16:27:21.467Z,95407.25
2018-06-03T16:29:51.526Z,95395.59
2018-06-03T16:32:21.850Z,95398.94
2018-06-03T16:34:51.869Z,95406.79
2018-06-03T16:37:22.040Z,95397.94
2018-06-03T16:39:52.032Z,95390.82
2018-06-03T16:42:22.197Z,95386.14
2018-06-03T16:44:52.273Z,95383.84
2018-06-03T16:47:22.512Z,95378.25
2018-06-03T16:49:52.702Z,95373.29
2018-06-03T16:52:22.781Z,95382.10
2018-06-03T16:54:52.826Z,95371.93
2018-06-03T16:57:22.937Z,95373.02
2018-06-03T16:59:52.943Z,95373.73
2018-06-03T17:02:23.102Z,95373.23
2018-06-03T17:04:53.081Z,95379.93
2018-06-03T17:07:23.223Z,95377.24
2018-06-03T17:09:53.234Z,95383.57
2018-06-03T17:12:23.692Z,95390.39
2018-06-03T17:14:53.673Z,95390.86
2018-06-03T17:17:23.873Z,95388.61
2018-06-03T17:19:53.830Z,95391.31
2018-06-03T17:22:23.974Z,95393.77
2018-06-03T17:24:53.952Z,95381.64
2018-06-03T17:27:24.858Z,95375.02
2018-06-03T17:29:54.803Z,95374.19
2018-06-03T17:32:25.129Z,95375.95
2018-06-03T17:34:55.111Z,95379.02
2018-06-03T17:37:25.245Z,95376.03
2018-06-03T17:39:55.218Z,95384.22
2018-06-03T17:42:24.956Z,95391.03
2018-06-03T17:44:54.894Z,95384.88
2018-06-03T17:47:25.076Z,95384.89
2018-06-03T17:49:54.624Z,95381.91
2018-06-03T17:52:25.078Z,95383.27
2018-06-03T17:54:55.076Z,95381.65
2018-06-03T17:57:25.192Z,95379.52
2018-06-03T17:59:55.143Z,95376.94
2018-06-03T18:02:25.270Z,95371.23
2018-06-03T18:04:55.240Z,95376.52
2018-06-03T18:07:25.356Z,95367.66
2018-06-03T18:09:56.283Z,95369.09
2018-06-03T18:12:26.556Z,95369.92
2018-06-03T18:14:56.548Z,95367.43
2018-06-03T18:17:26.886Z,95372.63
2018-06-03T18:19:56.926Z,95374.25
2018-06-03T18:22:27.011Z,95365.94
2018-06-03T18:24:57.022Z,95359.69
2018-06-03T18:27:27.144Z,95356.36
2018-06-03T18:29:56.708Z,95357.02
2018-06-03T18:32:26.765Z,95353.30
2018-06-03T18:34:56.715Z,95354.34
2018-06-03T18:37:26.838Z,95347.12
2018-06-03T18:39:56.795Z,95353.04
2018-06-03T18:42:26.863Z,95348.00
2018-06-03T18:44:56.830Z,95349.77
2018-06-03T18:47:26.947Z,95347.00
2018-06-03T18:49:56.909Z,95337.70
2018-06-03T18:52:26.932Z,95339.69
2018-06-03T18:54:56.941Z,95336.78
2018-06-03T18:57:27.269Z,95337.06
2018-06-03T18:59:57.250Z,95332.83
2018-06-03T19:02:27.282Z,95331.73
2018-06-03T19:04:57.254Z,95324.84
2018-06-03T19:07:27.352Z,95326.23
2018-06-03T19:09:57.327Z,95327.57
2018-06-03T19:12:27.376Z,95325.14
2018-06-03T19:14:57.340Z,95322.45
2018-06-03T19:17:27.496Z,95324.23
2018-06-03T19:19:57.467Z,95320.13
2018-06-03T19:22:27.515Z,95324.39
2018-06-03T19:24:57.536Z,95325.80
2018-06-03T19:27:27.576Z,95332.77
2018-06-03T19:29:57.591Z,95330.75
2018-06-03T19:32:27.626Z,95327.40
2018-06-03T19:34:57.650Z,95330.49
2018-06-03T19:37:27.607Z,95334.67
2018-06-03T19:39:57.562Z,95331.84
2018-06-03T19:42:27.621Z,95341.77
2018-06-03T19:44:57.599Z,95347.48
2018-06-03T19:47:27.703Z,95342.63
2018-06-03T19:49:57.697Z,95346.38
2018-06-03T19:52:27.821Z,95344.75
2018-06-03T19:54:57.829Z,95345.38
2018-06-03T19:57:27.890Z,95342.75
2018-06-03T19:59:58.102Z,95339.05
2018-06-03T20:02:28.263Z,95347.78
2018-06-03T20:04:58.203Z,95349.01
2018-06-03T20:07:28.270Z,95355.89
2018-06-03T20:09:58.223Z,95364.17
2018-06-03T20:12:28.242Z,95356.63
2018-06-03T20:14:58.318Z,95356.67
2018-06-03T20:17:28.589Z,95341.56
2018-06-03T20:19:58.546Z,95354.75
2018-06-03T20:22:28.614Z,95354.16
2018-06-03T20:24:58.692Z,95352.03
2018-06-03T20:27:28.907Z,95352.62
2018-06-03T20:29:58.929Z,95353.41
2018-06-03T20:32:29.094Z,95349.02
2018-06-03T20:34:58.649Z,95354.94
2018-06-03T20:37:28.829Z,95358.92
2018-06-03T20:39:58.812Z,95359.88
2018-06-03T20:42:28.928Z,95353.00
2018-06-03T20:44:58.881Z,95353.75
2018-06-03T20:47:28.955Z,95345.23
2018-06-03T20:50:01.162Z,95347.37
2018-06-03T20:52:31.610Z,95346.39
2018-06-03T20:55:01.575Z,95340.98
2018-06-03T20:57:31.708Z,95351.33
2018-06-03T21:00:01.721Z,95343.62
2018-06-03T21:02:32.005Z,95343.17
2018-06-03T21:05:01.962Z,95339.45
2018-06-03T21:07:32.047Z,95346.01
2018-06-03T21:10:02.038Z,95345.05
2018-06-03T21:12:32.086Z,95348.41
2018-06-03T21:15:02.061Z,95348.27
2018-06-03T21:17:32.899Z,95344.30
2018-06-03T21:20:02.887Z,95349.48
2018-06-03T21:22:32.935Z,95345.70
2018-06-03T21:25:02.914Z,95360.32
2018-06-03T21:27:33.975Z,95351.43
2018-06-03T21:30:04.056Z,95353.91
2018-06-03T21:32:34.207Z,95349.35
2018-06-03T21:35:04.304Z,95353.13
2018-06-03T21:37:34.435Z,95360.75
2018-06-03T21:40:04.487Z,95360.06
2018-06-03T21:42:34.967Z,95364.67
2018-06-03T21:45:05.200Z,95358.49
2018-06-03T21:47:35.478Z,95354.44
2018-06-03T21:50:05.558Z,95356.43
2018-06-03T21:52:35.704Z,95350.84
2018-06-03T21:55:05.762Z,95357.95
2018-06-03T21:57:35.839Z,95360.41
2018-06-03T22:00:07.738Z,95357.52
2018-06-03T22:02:37.745Z,95352.95
2018-06-03T22:05:07.717Z,95351.60
2018-06-03T22:07:37.814Z,95343.70
2018-06-03T22:10:07.817Z,95348.62
2018-06-03T22:12:37.790Z,95344.06
2018-06-03T22:15:07.751Z,95337.91
2018-06-03T22:17:37.779Z,95345.17
2018-06-03T22:20:07.824Z,95340.13
2018-06-03T22:22:38.459Z,95335.59
2018-06-03T22:25:08.509Z,95334.02
2018-06-03T22:27:38.507Z,95337.55
2018-06-03T22:30:08.587Z,95338.10
2018-06-03T22:32:38.509Z,95334.13
2018-06-03T22:35:08.580Z,95329.55
2018-06-03T22:37:39.566Z,95328.73
2018-06-03T22:40:09.637Z,95327.94
2018-06-03T22:42:39.652Z,95333.89
2018-06-03T22:45:09.669Z,95325.00
2018-06-03T22:47:39.664Z,95321.34
2018-06-03T22:50:09.751Z,95314.91
2018-06-03T22:52:39.724Z,95321.61
2018-06-03T22:55:09.730Z,95316.77
2018-06-03T22:57:51.387Z,95314.63
2018-06-03T23:00:33.036Z,95310.39
2018-06-03T23:03:08.098Z,95318.23
2018-06-03T23:05:38.157Z,95318.47
2018-06-03T23:08:08.238Z,95320.33
2018-06-03T23:10:38.957Z,95320.92
2018-06-03T23:13:08.977Z,95311.78
2018-06-03T23:15:38.965Z,95316.65
2018-06-03T23:18:08.959Z,95307.23
2018-06-03T23:20:38.972Z,95308.84
2018-06-03T23:23:08.960Z,95306.17
2018-06-03T23:25:38.904Z,95309.14
2018-06-03T23:28:08.890Z,95308.06
2018-06-03T23:30:38.847Z,95310.88
2018-06-03T23:33:08.840Z,95313.86
2018-06-03T23:35:38.835Z,95316.02
2018-06-03T23:38:09.024Z,95316.56
2018-06-03T23:40:39.023Z,95311.77
2018-06-03T23:43:09.017Z,95309.53
2018-06-03T23:45:39.036Z,95306.84
2018-06-03T23:48:09.095Z,95313.66
2018-06-03T23:50:39.093Z,95304.46
2018-06-03T23:53:09.160Z,95296.13
2018-06-03T23:55:39.115Z,95286.66
2018-06-03T23:58:09.128Z,95294.21
